FALA

Lanseria Airport

Johannesburg, South Africa
METAR FALA 260300Z 09011KT 9999 FEW015 15/09 Q1022 NOSIG
Observed Flight Rules
Feb-26 @ 03:00 UTC (15 minutes ago) Visual Flight Rules
Wind Visibility Clouds
90° at 11 knots 10,000+ meters
  • Few at 1,500' AGL
Temperatures Readings
Current 15°C / 59°F
Dewpoint 9°C / 48°F
Humidity 68%
Altimeter 30.18" Hg
Pressure 1022 hPa
Elevation 1377
METAR FALA 260300Z 09011KT 9999 FEW015 15/09 Q1022 NOSIG
Observed Flight Rules
Feb-26 @ 03:00 UTC
(15 minutes ago)
VFR
Wind Visibility
90° at 11 knots 10,000+ meters
Clouds
  • Few at 1,500' AGL
Temperature Dewpoint
15°C / 59°F 9°C / 48°F
Humidity Altimeter Pressure
68% 30.18" Hg 1022 hPa